Terminal Aerodrome Forecast
Issued by NWS Northern Indiana

Home | Current Version | Previous Version | Graphics & Text | Print | Product List | Glossary On
Versions: 1 2 3 4 5 6 7 8 9 10 11 12 13 14 15 16
922
FTUS43 KIWX 082341
TAFFWA
TAF
KFWA 082341Z 0900/0924 28011KT 6SM -SN OVC015
      TEMPO 0900/0902 3SM -SHSN OVC009
     FM090400 28011KT P6SM OVC015
     FM090800 28012KT 5SM -SHSN OVC015
     FM091400 30012G19KT P6SM OVC025=

USA.gov is the U.S. government's official web portal to all federal, state and local government web resources and services.